DLH653 OYSN-HECA
Flight info
| Callsign | DLH653 |
|---|---|
| Flight time | N/A |
| Altitude | 34000 |
| Route | IMSIL M559 LABNI M999 BOSUT Q11 JDW L677 MENLI |
| Aircraft | A306/H-SDE3FGHIRWY/LB1 |
Departure
| Time | 2026-05-05 14:41 |
|---|---|
| Airport | Sanaa International Airport (OYSN) |
Arrival
| Time | N/A |
|---|---|
| Airport | Cairo International Airport (HECA) |
| Time | Latitude | Longitude | Altitude | Speed | Heading |
|---|---|---|---|---|---|
| 2026-05-05 14:15 | 15.48417 | 44.22293 | 7087 ft | 0 kts | 96° |
| 2026-05-05 14:30 | 15.48419 | 44.22276 | 7091 ft | 3 kts | 95° |
| 2026-05-05 14:31 | 15.48420 | 44.22258 | 7090 ft | 1 kts | 82° |
| 2026-05-05 14:31 | 15.48418 | 44.22249 | 7091 ft | 1 kts | 37° |
| 2026-05-05 14:31 | 15.48410 | 44.22245 | 7091 ft | 1 kts | 8° |
| 2026-05-05 14:31 | 15.48402 | 44.22245 | 7091 ft | 1 kts | 1° |
| 2026-05-05 14:32 | 15.48398 | 44.22245 | 7091 ft | 0 kts | 0° |
| 2026-05-05 14:33 | 15.48404 | 44.22245 | 7091 ft | 4 kts | 1° |
| 2026-05-05 14:33 | 15.48434 | 44.22245 | 7091 ft | 9 kts | 1° |
| 2026-05-05 14:34 | 15.48496 | 44.22246 | 7089 ft | 9 kts | 1° |
| 2026-05-05 14:34 | 15.48516 | 44.22222 | 7089 ft | 7 kts | 284° |
| 2026-05-05 14:34 | 15.48513 | 44.22141 | 7089 ft | 11 kts | 245° |
| 2026-05-05 14:34 | 15.48465 | 44.22137 | 7090 ft | 10 kts | 171° |
| 2026-05-05 14:35 | 15.48366 | 44.22142 | 7092 ft | 18 kts | 181° |
| 2026-05-05 14:35 | 15.48219 | 44.22143 | 7094 ft | 23 kts | 179° |
| 2026-05-05 14:35 | 15.48049 | 44.22145 | 7097 ft | 25 kts | 180° |
| 2026-05-05 14:35 | 15.47866 | 44.22145 | 7101 ft | 27 kts | 179° |
| 2026-05-05 14:36 | 15.47670 | 44.22149 | 7105 ft | 28 kts | 180° |
| 2026-05-05 14:36 | 15.47493 | 44.22149 | 7109 ft | 23 kts | 180° |
| 2026-05-05 14:36 | 15.47345 | 44.22150 | 7112 ft | 19 kts | 179° |
| 2026-05-05 14:36 | 15.47216 | 44.22150 | 7114 ft | 18 kts | 180° |
| 2026-05-05 14:37 | 15.47092 | 44.22151 | 7118 ft | 18 kts | 180° |
| 2026-05-05 14:37 | 15.46957 | 44.22151 | 7119 ft | 20 kts | 180° |
| 2026-05-05 14:37 | 15.46807 | 44.22152 | 7122 ft | 23 kts | 179° |
| 2026-05-05 14:37 | 15.46644 | 44.22153 | 7129 ft | 24 kts | 180° |
| 2026-05-05 14:38 | 15.46480 | 44.22155 | 7136 ft | 22 kts | 179° |
| 2026-05-05 14:38 | 15.46342 | 44.22158 | 7137 ft | 18 kts | 180° |
| 2026-05-05 14:38 | 15.46229 | 44.22154 | 7137 ft | 14 kts | 181° |
| 2026-05-05 14:38 | 15.46170 | 44.22104 | 7141 ft | 10 kts | 260° |
| 2026-05-05 14:39 | 15.46169 | 44.22058 | 7139 ft | 9 kts | 270° |
| 2026-05-05 14:39 | 15.46170 | 44.21998 | 7139 ft | 7 kts | 276° |
| 2026-05-05 14:39 | 15.46216 | 44.21985 | 7136 ft | 12 kts | 354° |
| 2026-05-05 14:39 | 15.46334 | 44.21986 | 7136 ft | 22 kts | 0° |
| 2026-05-05 14:40 | 15.46589 | 44.21983 | 7133 ft | 61 kts | 359° |
| 2026-05-05 14:40 | 15.47196 | 44.21980 | 7120 ft | 112 kts | 0° |
| 2026-05-05 14:40 | 15.48134 | 44.21978 | 7097 ft | 156 kts | 1° |
| 2026-05-05 14:40 | 15.49346 | 44.21989 | 7237 ft | 186 kts | 2° |
| 2026-05-05 14:41 | 15.50624 | 44.21986 | 7964 ft | 184 kts | 0° |
| 2026-05-05 14:41 | 15.51920 | 44.21916 | 8423 ft | 189 kts | 358° |
| 2026-05-05 14:41 | 15.53294 | 44.21888 | 8948 ft | 209 kts | 2° |
| 2026-05-05 14:41 | 15.54784 | 44.21887 | 9702 ft | 215 kts | 4° |
| 2026-05-05 14:42 | 15.56272 | 44.21894 | 10530 ft | 217 kts | 4° |
| 2026-05-05 14:42 | 15.57818 | 44.21892 | 11131 ft | 226 kts | 2° |
| 2026-05-05 14:42 | 15.59414 | 44.21888 | 11831 ft | 231 kts | 3° |
| 2026-05-05 14:42 | 15.61035 | 44.21886 | 12540 ft | 235 kts | 4° |
| 2026-05-05 14:43 | 15.62680 | 44.21883 | 13258 ft | 238 kts | 5° |
| 2026-05-05 14:43 | 15.64351 | 44.21878 | 13918 ft | 242 kts | 5° |
| 2026-05-05 14:43 | 15.66052 | 44.21859 | 14523 ft | 246 kts | 2° |
| 2026-05-05 14:43 | 15.67766 | 44.21656 | 15104 ft | 254 kts | 346° |
| 2026-05-05 14:44 | 15.69284 | 44.20646 | 15508 ft | 273 kts | 312° |
| 2026-05-05 14:44 | 15.70365 | 44.18931 | 15769 ft | 296 kts | 299° |
| 2026-05-05 14:44 | 15.71322 | 44.16983 | 16047 ft | 317 kts | 297° |
| 2026-05-05 14:44 | 15.72350 | 44.14885 | 16342 ft | 335 kts | 297° |
| 2026-05-05 14:45 | 15.73453 | 44.12685 | 16630 ft | 352 kts | 298° |
| 2026-05-05 14:45 | 15.74628 | 44.10400 | 16932 ft | 366 kts | 298° |
| 2026-05-05 14:45 | 15.75841 | 44.08014 | 17194 ft | 380 kts | 298° |
| 2026-05-05 14:45 | 15.77102 | 44.05547 | 17481 ft | 393 kts | 298° |
| 2026-05-05 14:46 | 15.78406 | 44.03003 | 17736 ft | 405 kts | 298° |
| 2026-05-05 14:46 | 15.79751 | 44.00389 | 17980 ft | 416 kts | 298° |
| 2026-05-05 14:46 | 15.81138 | 43.97706 | 18213 ft | 426 kts | 299° |
| 2026-05-05 14:46 | 15.82561 | 43.94966 | 18462 ft | 434 kts | 298° |
| 2026-05-05 14:47 | 15.83994 | 43.92204 | 18926 ft | 434 kts | 298° |
| 2026-05-05 14:47 | 15.85414 | 43.89430 | 19314 ft | 436 kts | 298° |
| 2026-05-05 14:47 | 15.86846 | 43.86630 | 19585 ft | 441 kts | 298° |
| 2026-05-05 14:47 | 15.88283 | 43.83812 | 19984 ft | 441 kts | 298° |
| 2026-05-05 14:48 | 15.89725 | 43.81010 | 20516 ft | 437 kts | 298° |
| 2026-05-05 14:48 | 15.91157 | 43.78230 | 20957 ft | 437 kts | 298° |
| 2026-05-05 14:48 | 15.92589 | 43.75438 | 21285 ft | 439 kts | 298° |
| 2026-05-05 14:48 | 15.94032 | 43.72627 | 21615 ft | 441 kts | 298° |
| 2026-05-05 14:49 | 15.95460 | 43.69799 | 21912 ft | 443 kts | 296° |
| 2026-05-05 14:49 | 15.96681 | 43.66853 | 22237 ft | 444 kts | 291° |
| 2026-05-05 14:49 | 15.97758 | 43.63833 | 22525 ft | 447 kts | 289° |
| 2026-05-05 14:49 | 15.98748 | 43.60812 | 22903 ft | 446 kts | 288° |
| 2026-05-05 14:50 | 15.99720 | 43.57740 | 23194 ft | 448 kts | 288° |
| 2026-05-05 14:50 | 16.00695 | 43.54622 | 23566 ft | 448 kts | 288° |
| 2026-05-05 14:50 | 16.01673 | 43.51539 | 23737 ft | 451 kts | 288° |
| 2026-05-05 14:50 | 16.02661 | 43.48475 | 23903 ft | 454 kts | 289° |
| 2026-05-05 14:51 | 16.03673 | 43.45362 | 24097 ft | 456 kts | 288° |
| 2026-05-05 14:51 | 16.04686 | 43.42227 | 24324 ft | 458 kts | 288° |
| 2026-05-05 14:51 | 16.05704 | 43.39092 | 24627 ft | 457 kts | 288° |
| 2026-05-05 14:51 | 16.06733 | 43.35946 | 24825 ft | 459 kts | 288° |
| 2026-05-05 14:52 | 16.07764 | 43.32804 | 25071 ft | 459 kts | 288° |
| 2026-05-05 14:52 | 16.08801 | 43.29658 | 25286 ft | 461 kts | 288° |
| 2026-05-05 14:52 | 16.09855 | 43.26495 | 25422 ft | 463 kts | 288° |
| 2026-05-05 14:52 | 16.10888 | 43.23324 | 25620 ft | 465 kts | 288° |
| 2026-05-05 14:53 | 16.11915 | 43.20116 | 25808 ft | 467 kts | 287° |
| 2026-05-05 14:53 | 16.12943 | 43.16927 | 26166 ft | 464 kts | 287° |
| 2026-05-05 14:53 | 16.13959 | 43.13733 | 26300 ft | 467 kts | 287° |
| 2026-05-05 14:53 | 16.14976 | 43.10538 | 26615 ft | 465 kts | 288° |
| 2026-05-05 14:54 | 16.16003 | 43.07338 | 26714 ft | 468 kts | 287° |
| 2026-05-05 14:54 | 16.17035 | 43.04111 | 26871 ft | 470 kts | 287° |
| 2026-05-05 14:54 | 16.18075 | 43.00880 | 27007 ft | 472 kts | 287° |
| 2026-05-05 14:54 | 16.19131 | 42.97633 | 27144 ft | 475 kts | 287° |
| 2026-05-05 14:55 | 16.20179 | 42.94383 | 27387 ft | 473 kts | 288° |
| 2026-05-05 14:55 | 16.21235 | 42.91119 | 27528 ft | 475 kts | 287° |
| 2026-05-05 14:55 | 16.22306 | 42.87864 | 27786 ft | 474 kts | 287° |
| 2026-05-05 14:55 | 16.23386 | 42.84600 | 27810 ft | 478 kts | 288° |
| 2026-05-05 14:56 | 16.24449 | 42.81356 | 27973 ft | 479 kts | 287° |
| 2026-05-05 14:56 | 16.25508 | 42.78046 | 28055 ft | 481 kts | 287° |
| 2026-05-05 14:56 | 16.26576 | 42.74741 | 28317 ft | 479 kts | 287° |
| 2026-05-05 14:56 | 16.27632 | 42.71497 | 28625 ft | 477 kts | 287° |
| 2026-05-05 14:57 | 16.28693 | 42.68211 | 28867 ft | 476 kts | 287° |
| 2026-05-05 14:57 | 16.29745 | 42.64940 | 29159 ft | 474 kts | 287° |
| 2026-05-05 14:57 | 16.30760 | 42.61706 | 29299 ft | 476 kts | 286° |
| 2026-05-05 14:57 | 16.31788 | 42.58412 | 29479 ft | 477 kts | 287° |
| 2026-05-05 14:58 | 16.32827 | 42.55116 | 29651 ft | 478 kts | 287° |
| 2026-05-05 14:58 | 16.33862 | 42.51855 | 29940 ft | 476 kts | 287° |
| 2026-05-05 14:58 | 16.34912 | 42.48561 | 30149 ft | 476 kts | 287° |
| 2026-05-05 14:58 | 16.35950 | 42.45315 | 30369 ft | 475 kts | 287° |
| 2026-05-05 14:59 | 16.36997 | 42.42040 | 30550 ft | 476 kts | 287° |
| 2026-05-05 14:59 | 16.38045 | 42.38761 | 30723 ft | 476 kts | 287° |
| 2026-05-05 14:59 | 16.39084 | 42.35510 | 30917 ft | 476 kts | 287° |
| 2026-05-05 14:59 | 16.40154 | 42.32229 | 31109 ft | 477 kts | 289° |
| 2026-05-05 15:00 | 16.41488 | 42.29048 | 31354 ft | 477 kts | 293° |
| 2026-05-05 15:00 | 16.42416 | 42.26962 | 31482 ft | 477 kts | 293° |
| 2026-05-05 15:00 | 16.44314 | 42.22819 | 31765 ft | 477 kts | 294° |
| 2026-05-05 15:00 | 16.45759 | 42.19718 | 31993 ft | 477 kts | 294° |
| 2026-05-05 15:01 | 16.47223 | 42.16593 | 32187 ft | 477 kts | 294° |
| 2026-05-05 15:01 | 16.48661 | 42.13523 | 32400 ft | 477 kts | 294° |
| 2026-05-05 15:01 | 16.50119 | 42.10405 | 32621 ft | 476 kts | 294° |
| 2026-05-05 15:01 | 16.51569 | 42.07295 | 32844 ft | 476 kts | 294° |
| 2026-05-05 15:02 | 16.53016 | 42.04185 | 33070 ft | 476 kts | 294° |
| 2026-05-05 15:02 | 16.54445 | 42.01111 | 33295 ft | 475 kts | 294° |
| 2026-05-05 15:02 | 16.55889 | 41.97999 | 33563 ft | 474 kts | 293° |
| 2026-05-05 15:02 | 16.57325 | 41.94904 | 33770 ft | 473 kts | 293° |
| 2026-05-05 15:03 | 16.60140 | 41.88837 | 33809 ft | 458 kts | 293° |
| 2026-05-05 15:03 | 16.62891 | 41.82899 | 33794 ft | 455 kts | 293° |
| 2026-05-05 15:04 | 16.65647 | 41.76940 | 33812 ft | 455 kts | 293° |
| 2026-05-05 15:04 | 16.68380 | 41.71027 | 33811 ft | 454 kts | 293° |
| 2026-05-05 15:05 | 16.72492 | 41.62123 | 33798 ft | 454 kts | 293° |
| 2026-05-05 15:06 | 16.75234 | 41.56180 | 33809 ft | 454 kts | 293° |
| 2026-05-05 15:06 | 16.77961 | 41.50264 | 33800 ft | 455 kts | 293° |
| 2026-05-05 15:07 | 16.80706 | 41.44302 | 33792 ft | 455 kts | 293° |
| 2026-05-05 15:07 | 16.83453 | 41.38332 | 33810 ft | 455 kts | 293° |
| 2026-05-05 15:08 | 16.86177 | 41.32408 | 33817 ft | 455 kts | 293° |
| 2026-05-05 15:08 | 16.88919 | 41.26436 | 33818 ft | 455 kts | 293° |
| 2026-05-05 15:09 | 16.91787 | 41.20547 | 33817 ft | 457 kts | 300° |
| 2026-05-05 15:09 | 16.96004 | 41.15584 | 33814 ft | 463 kts | 320° |
| 2026-05-05 15:09 | 16.98718 | 41.13749 | 33800 ft | 466 kts | 331° |
| 2026-05-05 15:10 | 17.01641 | 41.12344 | 33800 ft | 467 kts | 335° |
| 2026-05-05 15:10 | 17.07683 | 41.09836 | 33809 ft | 467 kts | 338° |
| 2026-05-05 15:11 | 17.13769 | 41.07434 | 33806 ft | 467 kts | 338° |
| 2026-05-05 15:11 | 17.19844 | 41.05000 | 33807 ft | 467 kts | 337° |
| 2026-05-05 15:12 | 17.25913 | 41.02531 | 33809 ft | 467 kts | 337° |
| 2026-05-05 15:12 | 17.31961 | 41.00056 | 33804 ft | 467 kts | 337° |
| 2026-05-05 15:13 | 17.38011 | 40.97578 | 33801 ft | 466 kts | 337° |
| 2026-05-05 15:13 | 17.44050 | 40.95104 | 33805 ft | 466 kts | 336° |
| 2026-05-05 15:14 | 17.50095 | 40.92627 | 33811 ft | 466 kts | 337° |
| 2026-05-05 15:14 | 17.56133 | 40.90151 | 33805 ft | 466 kts | 336° |
| 2026-05-05 15:15 | 17.62167 | 40.87676 | 33807 ft | 465 kts | 336° |
| 2026-05-05 15:15 | 17.68152 | 40.85205 | 33807 ft | 464 kts | 336° |
| 2026-05-05 15:16 | 17.74174 | 40.82735 | 33804 ft | 464 kts | 336° |
| 2026-05-05 15:16 | 17.80177 | 40.80272 | 33807 ft | 464 kts | 336° |
| 2026-05-05 15:17 | 17.86194 | 40.77798 | 33808 ft | 464 kts | 336° |
| 2026-05-05 15:17 | 17.92177 | 40.75336 | 33812 ft | 464 kts | 336° |
| 2026-05-05 15:18 | 17.98171 | 40.72860 | 33809 ft | 463 kts | 336° |
| 2026-05-05 15:18 | 18.04165 | 40.70386 | 33805 ft | 463 kts | 336° |
| 2026-05-05 15:19 | 18.10168 | 40.67912 | 33801 ft | 463 kts | 336° |
| 2026-05-05 15:19 | 18.16165 | 40.65437 | 33806 ft | 463 kts | 336° |
| 2026-05-05 15:20 | 18.22162 | 40.62959 | 33813 ft | 463 kts | 336° |
| 2026-05-05 15:20 | 18.28146 | 40.60484 | 33807 ft | 462 kts | 336° |
| 2026-05-05 15:21 | 18.34129 | 40.58007 | 33806 ft | 462 kts | 336° |
| 2026-05-05 15:21 | 18.40113 | 40.55528 | 33806 ft | 462 kts | 336° |
| 2026-05-05 15:22 | 18.46097 | 40.53047 | 33805 ft | 462 kts | 336° |
| 2026-05-05 15:22 | 18.52087 | 40.50562 | 33805 ft | 462 kts | 335° |
| 2026-05-05 15:23 | 18.57059 | 40.48499 | 33803 ft | 462 kts | 335° |
| 2026-05-05 15:23 | 18.63036 | 40.46015 | 33804 ft | 462 kts | 335° |
| 2026-05-05 15:24 | 18.69016 | 40.43529 | 33805 ft | 462 kts | 335° |
| 2026-05-05 15:24 | 18.75001 | 40.41038 | 33805 ft | 462 kts | 335° |
| 2026-05-05 15:25 | 18.80947 | 40.38563 | 33807 ft | 462 kts | 335° |
| 2026-05-05 15:25 | 18.86921 | 40.36073 | 33803 ft | 461 kts | 335° |
| 2026-05-05 15:26 | 18.92892 | 40.33583 | 33803 ft | 461 kts | 335° |
| 2026-05-05 15:26 | 18.98862 | 40.31091 | 33803 ft | 461 kts | 335° |
| 2026-05-05 15:27 | 19.04826 | 40.28600 | 33805 ft | 461 kts | 335° |
| 2026-05-05 15:27 | 19.10789 | 40.26095 | 33801 ft | 461 kts | 334° |
| 2026-05-05 15:28 | 19.16727 | 40.23547 | 33801 ft | 459 kts | 334° |
| 2026-05-05 15:28 | 19.22642 | 40.20994 | 33801 ft | 459 kts | 334° |
| 2026-05-05 15:29 | 19.28555 | 40.18443 | 33803 ft | 459 kts | 334° |
| 2026-05-05 15:29 | 19.34478 | 40.15890 | 33798 ft | 459 kts | 334° |
| 2026-05-05 15:30 | 19.40357 | 40.13356 | 33798 ft | 459 kts | 334° |
| 2026-05-05 15:30 | 19.46275 | 40.10803 | 33798 ft | 459 kts | 334° |
| 2026-05-05 15:31 | 19.52190 | 40.08249 | 33800 ft | 459 kts | 334° |
| 2026-05-05 15:31 | 19.58124 | 40.05685 | 33801 ft | 459 kts | 334° |
| 2026-05-05 15:32 | 19.64011 | 40.03139 | 33801 ft | 459 kts | 334° |
| 2026-05-05 15:32 | 19.69932 | 40.00577 | 33801 ft | 459 kts | 333° |
| 2026-05-05 15:33 | 19.75864 | 39.98008 | 33792 ft | 460 kts | 333° |
| 2026-05-05 15:33 | 19.81760 | 39.95455 | 33791 ft | 460 kts | 333° |
| 2026-05-05 15:34 | 19.87702 | 39.92882 | 33795 ft | 459 kts | 333° |
| 2026-05-05 15:34 | 19.93603 | 39.90323 | 33789 ft | 460 kts | 333° |
| 2026-05-05 15:35 | 19.99546 | 39.87745 | 33796 ft | 460 kts | 333° |
| 2026-05-05 15:35 | 20.05450 | 39.85180 | 33793 ft | 461 kts | 333° |
| 2026-05-05 15:36 | 20.11397 | 39.82596 | 33795 ft | 461 kts | 333° |
| 2026-05-05 15:36 | 20.12370 | 39.82173 | 33795 ft | 461 kts | 333° |
| 2026-05-05 15:38 | 20.34937 | 39.72343 | 33790 ft | 461 kts | 332° |
| 2026-05-05 15:38 | 20.40866 | 39.69753 | 33807 ft | 461 kts | 332° |
| 2026-05-05 15:39 | 20.46801 | 39.67160 | 33797 ft | 461 kts | 332° |
| 2026-05-05 15:39 | 20.52735 | 39.64564 | 33814 ft | 461 kts | 332° |
| 2026-05-05 15:40 | 20.58667 | 39.61967 | 33809 ft | 461 kts | 332° |
| 2026-05-05 15:40 | 20.64593 | 39.59371 | 33819 ft | 460 kts | 332° |
| 2026-05-05 15:41 | 20.70517 | 39.56774 | 33818 ft | 460 kts | 331° |
| 2026-05-05 15:41 | 20.76422 | 39.54182 | 33826 ft | 459 kts | 331° |
| 2026-05-05 15:42 | 20.82294 | 39.51604 | 33826 ft | 459 kts | 331° |
| 2026-05-05 15:42 | 20.88196 | 39.49012 | 33840 ft | 458 kts | 331° |
| 2026-05-05 15:43 | 20.94100 | 39.46419 | 33837 ft | 457 kts | 331° |
| 2026-05-05 15:43 | 20.99987 | 39.43830 | 33851 ft | 457 kts | 331° |
| 2026-05-05 15:44 | 21.05873 | 39.41239 | 33851 ft | 457 kts | 331° |
| 2026-05-05 15:44 | 21.11758 | 39.38646 | 33856 ft | 457 kts | 331° |
| 2026-05-05 15:45 | 21.17641 | 39.36053 | 33856 ft | 456 kts | 330° |
| 2026-05-05 15:45 | 21.23475 | 39.33478 | 33858 ft | 455 kts | 330° |
| 2026-05-05 15:46 | 21.29370 | 39.30874 | 33853 ft | 455 kts | 330° |
| 2026-05-05 15:46 | 21.35179 | 39.28305 | 33848 ft | 455 kts | 330° |
| 2026-05-05 15:47 | 21.41035 | 39.25714 | 33846 ft | 455 kts | 330° |
| 2026-05-05 15:47 | 21.46890 | 39.23122 | 33840 ft | 455 kts | 329° |
| 2026-05-05 15:48 | 21.52744 | 39.20527 | 33828 ft | 455 kts | 329° |
| 2026-05-05 15:48 | 21.58598 | 39.17930 | 33829 ft | 455 kts | 329° |
| 2026-05-05 15:49 | 21.64452 | 39.15331 | 33829 ft | 455 kts | 329° |
| 2026-05-05 15:49 | 21.70305 | 39.12730 | 33829 ft | 455 kts | 329° |
| 2026-05-05 15:50 | 21.76163 | 39.10153 | 33828 ft | 455 kts | 329° |
| 2026-05-05 15:50 | 21.82034 | 39.07593 | 33852 ft | 455 kts | 329° |
| 2026-05-05 15:51 | 21.87906 | 39.05030 | 33854 ft | 455 kts | 329° |
| 2026-05-05 15:51 | 21.93776 | 39.02462 | 33853 ft | 455 kts | 329° |
| 2026-05-05 15:52 | 21.99654 | 38.99888 | 33851 ft | 455 kts | 329° |
| 2026-05-05 15:52 | 22.05486 | 38.97331 | 33858 ft | 456 kts | 329° |
| 2026-05-05 15:53 | 22.11361 | 38.94752 | 33860 ft | 456 kts | 329° |
| 2026-05-05 15:53 | 22.17235 | 38.92171 | 33855 ft | 456 kts | 329° |
| 2026-05-05 15:54 | 22.23109 | 38.89589 | 33856 ft | 456 kts | 329° |
| 2026-05-05 15:54 | 22.28984 | 38.87003 | 33861 ft | 456 kts | 329° |
| 2026-05-05 15:55 | 22.34866 | 38.84412 | 33856 ft | 457 kts | 329° |
| 2026-05-05 15:55 | 22.40749 | 38.81819 | 33860 ft | 457 kts | 329° |
| 2026-05-05 15:56 | 22.46546 | 38.79261 | 33861 ft | 456 kts | 329° |
| 2026-05-05 15:56 | 22.52475 | 38.76642 | 33864 ft | 457 kts | 329° |
| 2026-05-05 15:57 | 22.58353 | 38.74044 | 33882 ft | 457 kts | 329° |
| 2026-05-05 15:57 | 22.64241 | 38.71438 | 33864 ft | 457 kts | 328° |
| 2026-05-05 15:58 | 22.70135 | 38.68827 | 33866 ft | 458 kts | 328° |
| 2026-05-05 15:58 | 22.76028 | 38.66213 | 33864 ft | 458 kts | 328° |
| 2026-05-05 15:59 | 22.81920 | 38.63598 | 33868 ft | 457 kts | 328° |
| 2026-05-05 15:59 | 22.87811 | 38.60981 | 33889 ft | 457 kts | 328° |
| 2026-05-05 16:00 | 22.93698 | 38.58364 | 33866 ft | 455 kts | 328° |
| 2026-05-05 16:00 | 22.99468 | 38.55809 | 33868 ft | 443 kts | 328° |
| 2026-05-05 16:01 | 23.05118 | 38.53290 | 33866 ft | 441 kts | 328° |
| 2026-05-05 16:01 | 23.10784 | 38.50756 | 33870 ft | 440 kts | 328° |
| 2026-05-05 16:02 | 23.16446 | 38.48223 | 33868 ft | 441 kts | 328° |
| 2026-05-05 16:02 | 23.22114 | 38.45691 | 33876 ft | 440 kts | 327° |
| 2026-05-05 16:03 | 23.27742 | 38.43175 | 33876 ft | 440 kts | 327° |
| 2026-05-05 16:03 | 23.33400 | 38.40642 | 33878 ft | 440 kts | 327° |
| 2026-05-05 16:04 | 23.39058 | 38.38107 | 33870 ft | 440 kts | 327° |
| 2026-05-05 16:04 | 23.44716 | 38.35570 | 33871 ft | 440 kts | 327° |
| 2026-05-05 16:05 | 23.50371 | 38.33033 | 33869 ft | 439 kts | 327° |
| 2026-05-05 16:05 | 23.56013 | 38.30499 | 33873 ft | 438 kts | 327° |
| 2026-05-05 16:06 | 23.61666 | 38.27956 | 33877 ft | 438 kts | 327° |
| 2026-05-05 16:06 | 23.67302 | 38.25419 | 33870 ft | 438 kts | 327° |
| 2026-05-05 16:07 | 23.72902 | 38.22894 | 33868 ft | 438 kts | 327° |
| 2026-05-05 16:07 | 23.78539 | 38.20352 | 33873 ft | 438 kts | 327° |
| 2026-05-05 16:08 | 23.84172 | 38.17810 | 33861 ft | 437 kts | 327° |
| 2026-05-05 16:08 | 23.89784 | 38.15274 | 33858 ft | 436 kts | 327° |
| 2026-05-05 16:09 | 23.95391 | 38.12737 | 33809 ft | 436 kts | 327° |
| 2026-05-05 16:09 | 24.00997 | 38.10197 | 33787 ft | 436 kts | 327° |
| 2026-05-05 16:10 | 24.06602 | 38.07658 | 33777 ft | 435 kts | 326° |
| 2026-05-05 16:10 | 24.12189 | 38.05125 | 33774 ft | 434 kts | 326° |
| 2026-05-05 16:10 | 24.14848 | 38.03735 | 33773 ft | 423 kts | 319° |
| 2026-05-05 16:11 | 24.17357 | 38.02035 | 33781 ft | 419 kts | 316° |
| 2026-05-05 16:12 | 24.26926 | 37.94935 | 33802 ft | 416 kts | 314° |
| 2026-05-05 16:13 | 24.38843 | 37.85952 | 33830 ft | 415 kts | 314° |
| 2026-05-05 16:13 | 24.43609 | 37.82368 | 33840 ft | 415 kts | 314° |
| 2026-05-05 16:14 | 24.53137 | 37.75196 | 33866 ft | 415 kts | 314° |
| 2026-05-05 16:15 | 24.62669 | 37.67998 | 33884 ft | 415 kts | 314° |
| 2026-05-05 16:16 | 24.72192 | 37.60796 | 33897 ft | 416 kts | 314° |
| 2026-05-05 16:17 | 24.79290 | 37.55422 | 33893 ft | 416 kts | 314° |
| 2026-05-05 16:18 | 24.85665 | 37.50587 | 33895 ft | 416 kts | 314° |
| 2026-05-05 16:19 | 24.92809 | 37.45158 | 33914 ft | 416 kts | 314° |
| 2026-05-05 16:19 | 24.99966 | 37.39715 | 33924 ft | 417 kts | 314° |
| 2026-05-05 16:20 | 25.09488 | 37.32463 | 33915 ft | 417 kts | 314° |
| 2026-05-05 16:22 | 25.21425 | 37.23350 | 33937 ft | 417 kts | 315° |
| 2026-05-05 16:23 | 25.30956 | 37.16058 | 33913 ft | 418 kts | 315° |
| 2026-05-05 16:23 | 25.38095 | 37.10586 | 33900 ft | 418 kts | 315° |
| 2026-05-05 16:24 | 25.42896 | 37.06900 | 33894 ft | 418 kts | 315° |
| 2026-05-05 16:25 | 25.50027 | 37.01420 | 33890 ft | 418 kts | 315° |
| 2026-05-05 16:25 | 25.57188 | 36.95908 | 33889 ft | 418 kts | 315° |
| 2026-05-05 16:26 | 25.66742 | 36.88541 | 33893 ft | 418 kts | 315° |
| 2026-05-05 16:27 | 25.71455 | 36.84902 | 33898 ft | 418 kts | 315° |
| 2026-05-05 16:27 | 25.76252 | 36.81194 | 33900 ft | 418 kts | 315° |
| 2026-05-05 16:28 | 25.81020 | 36.77505 | 33906 ft | 418 kts | 315° |
| 2026-05-05 16:28 | 25.85789 | 36.73811 | 33929 ft | 418 kts | 315° |
| 2026-05-05 16:29 | 25.90555 | 36.70118 | 33917 ft | 417 kts | 315° |
| 2026-05-05 16:29 | 25.95316 | 36.66422 | 33942 ft | 417 kts | 316° |
| 2026-05-05 16:30 | 26.00073 | 36.62727 | 33916 ft | 417 kts | 316° |
| 2026-05-05 16:30 | 26.04826 | 36.59032 | 33916 ft | 417 kts | 316° |
| 2026-05-05 16:31 | 26.09572 | 36.55337 | 33912 ft | 417 kts | 316° |
| 2026-05-05 16:31 | 26.14326 | 36.51633 | 33912 ft | 417 kts | 315° |
| 2026-05-05 16:32 | 26.18800 | 36.47705 | 33913 ft | 407 kts | 307° |
| 2026-05-05 16:32 | 26.22817 | 36.43261 | 33911 ft | 405 kts | 306° |
| 2026-05-05 16:33 | 26.26721 | 36.38757 | 33912 ft | 404 kts | 305° |
| 2026-05-05 16:33 | 26.30616 | 36.34236 | 33916 ft | 404 kts | 305° |
| 2026-05-05 16:34 | 26.34516 | 36.29723 | 33916 ft | 403 kts | 306° |
| 2026-05-05 16:34 | 26.38414 | 36.25220 | 33929 ft | 403 kts | 306° |
| 2026-05-05 16:35 | 26.42285 | 36.20746 | 33923 ft | 403 kts | 306° |
| 2026-05-05 16:35 | 26.46177 | 36.16242 | 33924 ft | 403 kts | 306° |
| 2026-05-05 16:36 | 26.50067 | 36.11736 | 33925 ft | 403 kts | 306° |
| 2026-05-05 16:36 | 26.53960 | 36.07221 | 33924 ft | 403 kts | 306° |
| 2026-05-05 16:37 | 26.57852 | 36.02704 | 33927 ft | 403 kts | 306° |
| 2026-05-05 16:37 | 26.61733 | 35.98194 | 33927 ft | 403 kts | 306° |
| 2026-05-05 16:38 | 26.65604 | 35.93691 | 33928 ft | 403 kts | 306° |
| 2026-05-05 16:38 | 26.69458 | 35.89204 | 33930 ft | 401 kts | 306° |
| 2026-05-05 16:39 | 26.73321 | 35.84701 | 33928 ft | 401 kts | 306° |
| 2026-05-05 16:39 | 26.77183 | 35.80194 | 33932 ft | 401 kts | 306° |
| 2026-05-05 16:40 | 26.81043 | 35.75684 | 33923 ft | 401 kts | 306° |
| 2026-05-05 16:40 | 26.84900 | 35.71175 | 33927 ft | 400 kts | 306° |
| 2026-05-05 16:41 | 26.88751 | 35.66668 | 33943 ft | 400 kts | 306° |
| 2026-05-05 16:41 | 26.92605 | 35.62153 | 33925 ft | 400 kts | 306° |
| 2026-05-05 16:42 | 26.96453 | 35.57639 | 33923 ft | 400 kts | 306° |
| 2026-05-05 16:42 | 27.00300 | 35.53122 | 33936 ft | 400 kts | 306° |
| 2026-05-05 16:43 | 27.04141 | 35.48607 | 33947 ft | 400 kts | 306° |
| 2026-05-05 16:43 | 27.07961 | 35.44114 | 33933 ft | 400 kts | 306° |
| 2026-05-05 16:44 | 27.11798 | 35.39595 | 33932 ft | 400 kts | 306° |
| 2026-05-05 16:44 | 27.15639 | 35.35067 | 33933 ft | 400 kts | 306° |
| 2026-05-05 16:45 | 27.19474 | 35.30540 | 33936 ft | 400 kts | 306° |
| 2026-05-05 16:45 | 27.23308 | 35.26010 | 33935 ft | 400 kts | 306° |
| 2026-05-05 16:46 | 27.27137 | 35.21480 | 33933 ft | 400 kts | 306° |
| 2026-05-05 16:46 | 27.30974 | 35.16936 | 33933 ft | 401 kts | 306° |
| 2026-05-05 16:47 | 27.34790 | 35.12413 | 33929 ft | 401 kts | 306° |
| 2026-05-05 16:47 | 27.38626 | 35.07862 | 33930 ft | 401 kts | 306° |
| 2026-05-05 16:48 | 27.42457 | 35.03312 | 33930 ft | 399 kts | 306° |
| 2026-05-05 16:48 | 27.46267 | 34.98782 | 33934 ft | 398 kts | 306° |
| 2026-05-05 16:49 | 27.50065 | 34.94261 | 33927 ft | 397 kts | 306° |